Time;durP1;ratioP1;P1;durP2;ratioP2;P2;SDS_P1;SDS_P2;PMS_P1;PMS_P2;Temp;Humidity;BMP_temperature;BMP_pressure;BME280_temperature;BME280_humidity;BME280_pressure;Samples;Min_cycle;Max_cycle;Signal;HPM_P1;HPM_P2
2022/06/02 00:02:32;;;;;;;0.40;0.20;;;15.00;99.90;;;;;;4901870;29;20756;-70
2022/06/02 00:05:12;;;;;;;0.40;0.30;;;14.90;99.90;;;;;;4879091;29;20495;-70
2022/06/02 00:07:52;;;;;;;0.40;0.20;;;14.90;99.90;;;;;;4891633;29;20423;-70
2022/06/02 00:10:26;;;;;;;0.40;0.30;;;14.80;99.90;;;;;;4894905;29;20418;-71
2022/06/02 00:13:00;;;;;;;0.40;0.30;;;14.70;99.90;;;;;;4895122;29;20452;-70
2022/06/02 00:15:36;;;;;;;0.40;0.20;;;14.70;99.90;;;;;;4877365;29;20456;-70
2022/06/02 00:18:12;;;;;;;0.40;0.20;;;14.60;99.90;;;;;;4898552;29;20421;-70
2022/06/02 00:20:43;;;;;;;0.60;0.50;;;14.60;99.90;;;;;;4894800;29;20689;-70
2022/06/02 00:23:31;;;;;;;0.40;0.20;;;14.50;99.90;;;;;;4897440;29;20406;-70
2022/06/02 00:26:21;;;;;;;0.40;0.30;;;14.50;99.90;;;;;;4894084;29;20915;-70
2022/06/02 00:29:07;;;;;;;0.40;0.20;;;14.50;99.90;;;;;;4898240;29;20458;-70
2022/06/02 00:31:54;;;;;;;0.40;0.20;;;14.40;99.90;;;;;;4846579;29;20969;-70
2022/06/02 00:34:45;;;;;;;0.40;0.20;;;14.40;99.90;;;;;;4876473;29;20457;-71
2022/06/02 00:37:40;;;;;;;0.43;0.32;;;14.40;99.90;;;;;;4887173;29;20418;-70
2022/06/02 00:40:09;;;;;;;0.40;0.40;;;14.30;99.90;;;;;;4892498;29;20892;-70
2022/06/02 00:43:15;;;;;;;0.40;0.20;;;14.30;99.90;;;;;;4891565;29;20466;-70
2022/06/02 00:45:45;;;;;;;0.80;0.80;;;14.30;99.90;;;;;;4841621;29;21170;-70
2022/06/02 00:48:40;;;;;;;0.40;0.20;;;14.20;99.90;;;;;;4885911;29;20790;-70
2022/06/02 00:51:10;;;;;;;0.40;0.30;;;14.10;99.90;;;;;;4896025;29;20874;-70
2022/06/02 00:53:42;;;;;;;0.40;0.20;;;14.10;99.90;;;;;;4913664;29;20397;-69
2022/06/02 01:00:03;;;;;;;0.40;0.20;;;14.00;99.90;;;;;;4911321;29;20486;-70
2022/06/02 01:02:36;;;;;;;0.40;0.20;;;14.00;99.90;;;;;;4896363;29;20971;-70
2022/06/02 01:05:03;;;;;;;0.40;0.30;;;14.00;99.90;;;;;;4913876;29;20385;-69
2022/06/02 01:07:41;;;;;;;0.40;0.20;;;14.00;99.90;;;;;;4907527;29;20421;-70
2022/06/02 01:10:32;;;;;;;0.40;0.20;;;14.00;99.90;;;;;;4907328;29;20507;-69
2022/06/02 01:13:13;;;;;;;0.80;0.80;;;14.00;99.90;;;;;;4895910;29;20423;-69
2022/06/02 01:15:42;;;;;;;0.40;0.20;;;14.10;99.90;;;;;;4875754;29;20392;-70
2022/06/02 01:18:48;;;;;;;0.40;0.20;;;14.20;99.90;;;;;;4876439;29;20460;-69
2022/06/02 01:21:49;;;;;;;0.50;0.40;;;14.20;99.90;;;;;;4861795;29;20447;-69
2022/06/02 01:24:44;;;;;;;0.40;0.20;;;14.20;99.90;;;;;;4849111;29;20418;-70
2022/06/02 01:27:18;;;;;;;0.40;0.40;;;14.30;99.90;;;;;;4877560;29;20438;-69
2022/06/02 01:29:56;;;;;;;0.40;0.20;;;14.30;99.90;;;;;;4894017;29;20980;-70
2022/06/02 01:32:32;;;;;;;0.40;0.30;;;14.30;99.90;;;;;;4894211;29;20940;-70
2022/06/02 01:35:13;;;;;;;0.40;0.30;;;14.40;99.90;;;;;;4894429;29;20411;-70
2022/06/02 01:38:10;;;;;;;0.40;0.20;;;14.30;99.90;;;;;;4894828;29;20402;-70
2022/06/02 01:40:43;;;;;;;0.40;0.30;;;14.20;99.90;;;;;;4897556;29;20415;-70
2022/06/02 01:43:22;;;;;;;0.40;0.30;;;14.30;99.90;;;;;;4897690;29;20403;-70
2022/06/02 01:46:20;;;;;;;0.40;0.30;;;14.20;99.90;;;;;;4887601;29;20908;-70
2022/06/02 01:49:11;;;;;;;0.40;0.20;;;14.20;99.90;;;;;;4896107;29;21091;-70
2022/06/02 01:51:58;;;;;;;0.40;0.20;;;14.10;99.90;;;;;;4897425;29;20911;-70
2022/06/02 01:54:50;;;;;;;0.40;0.20;;;14.20;99.90;;;;;;4897103;29;21059;-71
2022/06/02 01:57:52;;;;;;;0.40;0.20;;;14.20;99.90;;;;;;4894624;29;20415;-70
2022/06/02 02:00:25;;;;;;;0.40;0.30;;;14.20;99.90;;;;;;4855119;29;20777;-70
2022/06/02 02:03:12;;;;;;;0.40;0.20;;;14.10;99.90;;;;;;4880405;29;20393;-70
2022/06/02 02:05:51;;;;;;;0.40;0.30;;;14.10;99.90;;;;;;4896986;29;20399;-70
2022/06/02 02:09:01;;;;;;;0.40;0.30;;;14.10;99.90;;;;;;4879067;29;20819;-70
2022/06/02 02:11:51;;;;;;;0.40;0.20;;;14.20;99.90;;;;;;4878752;29;20420;-71
2022/06/02 02:14:44;;;;;;;0.40;0.20;;;14.10;99.90;;;;;;4890082;29;20494;-70
2022/06/02 02:17:49;;;;;;;0.60;0.60;;;14.10;99.90;;;;;;4896452;29;20446;-70
2022/06/02 02:20:30;;;;;;;0.40;0.30;;;14.10;99.90;;;;;;4897221;29;20399;-70
2022/06/02 02:23:08;;;;;;;0.90;0.70;;;14.10;99.90;;;;;;4896899;29;20490;-71
2022/06/02 02:25:51;;;;;;;0.40;0.30;;;14.00;99.90;;;;;;4896794;29;20906;-70
2022/06/02 02:28:44;;;;;;;0.40;0.20;;;14.00;99.90;;;;;;4897413;29;20438;-70
2022/06/02 02:31:09;;;;;;;0.40;0.20;;;14.00;99.90;;;;;;4897458;29;20412;-70
2022/06/02 02:34:12;;;;;;;0.40;0.20;;;14.10;99.90;;;;;;4896339;29;20466;-70
2022/06/02 02:37:08;;;;;;;0.40;0.30;;;14.10;99.90;;;;;;4896827;29;20402;-70
2022/06/02 02:40:00;;;;;;;0.40;0.20;;;14.20;99.90;;;;;;4910948;29;20405;-70
2022/06/02 02:42:51;;;;;;;0.40;0.20;;;14.20;99.90;;;;;;4896933;29;20414;-70
2022/06/02 02:45:46;;;;;;;0.40;0.20;;;14.10;99.90;;;;;;4897024;29;20407;-70
2022/06/02 02:48:30;;;;;;;0.40;0.20;;;14.00;99.90;;;;;;4896620;29;20422;-70
2022/06/02 02:51:18;;;;;;;0.40;0.40;;;14.00;99.90;;;;;;4896022;29;20892;-70
2022/06/02 02:54:08;;;;;;;0.40;0.30;;;13.90;99.90;;;;;;4896169;29;20396;-69
2022/06/02 02:57:08;;;;;;;0.40;0.20;;;13.90;99.90;;;;;;4896344;29;20470;-69
2022/06/02 03:00:25;;;;;;;0.40;0.20;;;13.90;99.90;;;;;;4906853;29;20494;-69
2022/06/02 03:03:04;;;;;;;0.40;0.20;;;13.90;99.90;;;;;;4884245;29;20414;-69
2022/06/02 03:05:47;;;;;;;0.40;0.20;;;13.80;99.90;;;;;;4896046;29;20391;-70
2022/06/02 03:08:35;;;;;;;0.40;0.20;;;13.70;99.90;;;;;;4896146;29;20912;-69
2022/06/02 03:11:39;;;;;;;0.40;0.22;;;13.70;99.90;;;;;;4896072;29;20442;-69
2022/06/02 03:14:51;;;;;;;0.40;0.30;;;13.60;99.90;;;;;;4888349;29;20494;-69
2022/06/02 03:17:23;;;;;;;0.40;0.20;;;13.60;99.90;;;;;;4896639;29;20395;-69
2022/06/02 03:20:02;;;;;;;0.40;0.20;;;13.60;99.90;;;;;;4895698;29;20417;-69
2022/06/02 03:22:34;;;;;;;0.40;0.30;;;13.50;99.90;;;;;;4908853;29;20397;-69
2022/06/02 03:25:11;;;;;;;0.40;0.30;;;13.60;99.90;;;;;;4914531;29;20461;-69
2022/06/02 03:28:03;;;;;;;0.40;0.30;;;13.50;99.90;;;;;;4895321;29;20549;-69
2022/06/02 03:30:44;;;;;;;1.50;0.80;;;13.40;99.90;;;;;;4895943;29;20442;-70
2022/06/02 03:33:35;;;;;;;0.40;0.25;;;13.30;99.90;;;;;;4896263;29;20442;-69
2022/06/02 03:36:36;;;;;;;0.50;0.40;;;13.20;99.90;;;;;;4877920;29;20397;-69
2022/06/02 03:39:17;;;;;;;0.40;0.20;;;13.20;99.90;;;;;;4887238;29;20834;-69
2022/06/02 03:41:51;;;;;;;1.10;1.00;;;13.20;99.90;;;;;;4895186;29;20387;-69
2022/06/02 03:44:42;;;;;;;0.40;0.30;;;13.20;99.90;;;;;;4896010;29;20544;-70
2022/06/02 03:47:17;;;;;;;0.40;0.20;;;13.20;99.90;;;;;;4896268;29;20430;-70
2022/06/02 03:50:07;;;;;;;0.40;0.30;;;13.20;99.90;;;;;;4895499;29;20391;-70
2022/06/02 03:52:58;;;;;;;0.60;0.60;;;13.20;99.90;;;;;;4895622;29;20443;-71
2022/06/02 03:55:42;;;;;;;0.40;0.20;;;13.20;99.90;;;;;;4895950;29;20395;-69
2022/06/02 03:58:34;;;;;;;0.40;0.20;;;13.20;99.90;;;;;;4903208;29;20421;-70
2022/06/02 04:01:03;;;;;;;0.40;0.30;;;13.10;99.90;;;;;;4911751;29;20416;-70
2022/06/02 04:03:49;;;;;;;0.40;0.20;;;13.10;99.90;;;;;;4900402;29;20874;-70
2022/06/02 04:06:42;;;;;;;0.40;0.30;;;12.90;99.90;;;;;;4877178;29;20472;-68
2022/06/02 04:09:13;;;;;;;0.40;0.20;;;13.00;99.90;;;;;;4906689;29;20839;-70
2022/06/02 04:15:19;;;;;;;0.40;0.20;;;12.90;99.90;;;;;;4877272;29;20555;-70
2022/06/02 04:18:06;;;;;;;0.40;0.20;;;12.80;99.90;;;;;;4892748;29;20427;-70
2022/06/02 04:20:41;;;;;;;0.40;0.20;;;12.80;99.90;;;;;;4878715;29;20409;-71
2022/06/02 04:23:11;;;;;;;0.40;0.30;;;12.70;99.90;;;;;;4901538;29;20751;-70
2022/06/02 04:26:00;;;;;;;0.40;0.30;;;12.80;99.90;;;;;;4903243;29;20438;-71
2022/06/02 04:29:03;;;;;;;0.40;0.30;;;12.80;99.90;;;;;;4895875;29;20475;-71
2022/06/02 04:31:44;;;;;;;0.40;0.30;;;12.80;99.90;;;;;;4908708;29;20461;-70
2022/06/02 04:34:24;;;;;;;0.40;0.20;;;12.90;99.90;;;;;;4905131;29;20454;-70
2022/06/02 04:37:04;;;;;;;0.40;0.20;;;12.90;99.90;;;;;;4898114;29;20416;-70
2022/06/02 04:39:52;;;;;;;0.40;0.20;;;12.90;99.90;;;;;;4893405;29;20500;-71
2022/06/02 04:42:51;;;;;;;0.40;0.20;;;12.90;99.90;;;;;;4901165;29;20449;-71
2022/06/02 04:45:32;;;;;;;0.40;0.30;;;13.10;99.90;;;;;;4899822;29;20488;-70
2022/06/02 04:48:10;;;;;;;0.40;0.30;;;13.30;99.90;;;;;;4893646;29;20514;-70
2022/06/02 04:51:01;;;;;;;0.40;0.20;;;13.30;99.90;;;;;;4901436;29;20514;-72
2022/06/02 04:53:34;;;;;;;0.90;0.70;;;13.50;99.90;;;;;;4896825;29;20413;-71
2022/06/02 04:56:41;;;;;;;0.40;0.20;;;13.60;99.90;;;;;;4896374;29;20908;-71
2022/06/02 04:59:28;;;;;;;0.40;0.30;;;13.60;99.90;;;;;;4890886;29;20796;-70
2022/06/02 05:02:03;;;;;;;0.40;0.30;;;13.70;99.90;;;;;;4893106;29;20827;-70
2022/06/02 05:04:58;;;;;;;0.40;0.20;;;13.70;99.90;;;;;;4903725;29;20405;-70
2022/06/02 05:07:47;;;;;;;0.40;0.25;;;13.80;99.90;;;;;;4889357;29;20426;-70
2022/06/02 05:10:45;;;;;;;0.40;0.20;;;13.90;99.90;;;;;;4908462;29;20398;-71
2022/06/02 05:13:28;;;;;;;0.40;0.30;;;13.70;99.90;;;;;;4893204;29;20427;-70
2022/06/02 05:16:23;;;;;;;0.40;0.30;;;13.80;99.90;;;;;;4897812;29;20503;-71
2022/06/02 05:19:08;;;;;;;0.40;0.30;;;14.00;99.90;;;;;;4899482;29;20419;-71
2022/06/02 05:21:39;;;;;;;0.40;0.30;;;13.90;99.90;;;;;;4914803;29;20409;-71
2022/06/02 05:24:53;;;;;;;0.40;0.20;;;14.10;99.90;;;;;;4912520;29;20399;-71
2022/06/02 05:27:33;;;;;;;0.40;0.30;;;13.90;99.90;;;;;;4852824;29;20502;-71
2022/06/02 05:30:12;;;;;;;0.40;0.20;;;13.90;99.90;;;;;;4899280;29;20419;-71
2022/06/02 05:33:01;;;;;;;0.40;0.20;;;14.10;99.90;;;;;;4897401;29;20414;-72
2022/06/02 05:35:51;;;;;;;0.40;0.30;;;14.20;99.90;;;;;;4897336;29;20475;-70
2022/06/02 05:38:38;;;;;;;0.40;0.20;;;14.30;99.90;;;;;;4898563;29;20494;-71
2022/06/02 05:41:16;;;;;;;0.40;0.20;;;14.40;99.90;;;;;;4898195;29;20394;-71
2022/06/02 05:43:50;;;;;;;0.40;0.20;;;14.50;99.90;;;;;;4897891;29;20399;-72
2022/06/02 05:46:50;;;;;;;0.40;0.20;;;14.50;99.90;;;;;;4898824;29;20849;-71
2022/06/02 05:49:34;;;;;;;0.40;0.20;;;14.40;99.90;;;;;;4898255;29;20884;-71
2022/06/02 05:52:22;;;;;;;0.40;0.30;;;14.60;99.90;;;;;;4897548;29;21058;-71
2022/06/02 05:55:08;;;;;;;0.40;0.20;;;14.30;99.90;;;;;;4896881;29;20442;-71
2022/06/02 05:57:41;;;;;;;0.40;0.20;;;14.40;99.90;;;;;;4899553;29;20448;-71
2022/06/02 06:00:31;;;;;;;0.40;0.20;;;14.30;99.90;;;;;;4917173;29;20420;-71
2022/06/02 06:03:24;;;;;;;0.40;0.30;;;14.50;99.90;;;;;;4916523;29;20389;-71
2022/06/02 06:06:28;;;;;;;0.40;0.20;;;14.60;99.90;;;;;;4916198;29;20409;-71
2022/06/02 06:09:09;;;;;;;0.40;0.20;;;14.70;99.90;;;;;;4916107;29;20408;-71
2022/06/02 06:11:58;;;;;;;0.40;0.20;;;14.70;99.90;;;;;;4916638;29;20386;-71
2022/06/02 06:14:36;;;;;;;0.60;0.60;;;14.70;99.90;;;;;;4905783;29;20409;-71
2022/06/02 06:17:29;;;;;;;0.40;0.20;;;14.70;99.90;;;;;;4910624;29;20428;-71
2022/06/02 06:20:07;;;;;;;0.50;0.50;;;14.70;99.90;;;;;;4911577;29;20410;-71
2022/06/02 06:22:39;;;;;;;0.40;0.20;;;14.80;99.90;;;;;;4916743;29;20404;-71
2022/06/02 06:25:26;;;;;;;0.40;0.20;;;14.80;99.90;;;;;;4914619;29;20471;-70
2022/06/02 06:28:01;;;;;;;0.40;0.30;;;15.00;99.90;;;;;;4915625;29;20437;-71
2022/06/02 06:30:51;;;;;;;0.40;0.20;;;15.10;99.90;;;;;;4916557;29;20450;-70
2022/06/02 06:33:32;;;;;;;0.40;0.30;;;15.10;99.90;;;;;;4916585;29;20420;-69
2022/06/02 06:36:07;;;;;;;0.40;0.20;;;15.30;99.90;;;;;;4915571;29;20870;-70
2022/06/02 06:38:54;;;;;;;0.40;0.20;;;15.40;99.90;;;;;;4916730;29;20743;-70
2022/06/02 06:41:39;;;;;;;0.40;0.20;;;15.30;99.90;;;;;;4916650;29;20758;-70
2022/06/02 06:44:14;;;;;;;0.40;0.20;;;15.20;99.90;;;;;;4908442;29;20418;-70
2022/06/02 06:47:01;;;;;;;0.40;0.20;;;15.30;99.90;;;;;;4897264;29;20394;-69
2022/06/02 06:50:09;;;;;;;0.40;0.20;;;15.40;99.90;;;;;;4897506;29;20760;-70
2022/06/02 06:52:50;;;;;;;0.40;0.20;;;15.40;99.90;;;;;;4896703;29;20415;-70
2022/06/02 06:55:48;;;;;;;0.40;0.20;;;15.50;99.90;;;;;;4897159;29;20900;-70
2022/06/02 06:58:23;;;;;;;0.40;0.20;;;15.30;99.90;;;;;;4874435;29;20429;-71
2022/06/02 07:01:09;;;;;;;0.40;0.20;;;15.30;99.90;;;;;;4914579;29;20818;-71
2022/06/02 07:03:50;;;;;;;0.40;0.20;;;15.30;99.90;;;;;;4896527;29;20413;-70
2022/06/02 07:06:29;;;;;;;0.40;0.20;;;15.40;99.90;;;;;;4888540;29;20404;-70
2022/06/02 07:09:15;;;;;;;0.40;0.20;;;15.40;99.90;;;;;;4890867;29;20418;-70
2022/06/02 07:14:57;;;;;;;0.40;0.20;;;15.60;99.90;;;;;;4891680;29;20427;-69
2022/06/02 07:17:29;;;;;;;0.60;0.60;;;15.70;99.90;;;;;;4897395;29;20414;-69
2022/06/02 07:20:03;;;;;;;0.40;0.20;;;15.90;99.90;;;;;;4896348;29;20490;-69
2022/06/02 07:22:42;;;;;;;0.52;0.52;;;15.80;99.90;;;;;;4897774;29;20420;-69
2022/06/02 07:25:18;;;;;;;0.40;0.20;;;16.00;99.90;;;;;;4894970;29;20518;-71
2022/06/02 07:28:01;;;;;;;0.57;0.50;;;16.00;99.90;;;;;;4911940;29;20496;-71
2022/06/02 07:30:49;;;;;;;0.40;0.20;;;16.20;99.90;;;;;;4901142;29;20465;-69
2022/06/02 07:33:33;;;;;;;0.40;0.20;;;16.20;99.90;;;;;;4914835;29;20902;-70
2022/06/02 07:36:05;;;;;;;0.40;0.20;;;16.30;99.90;;;;;;4914198;29;20476;-70
2022/06/02 07:38:45;;;;;;;0.40;0.20;;;16.40;99.90;;;;;;4915412;29;20405;-69
2022/06/02 07:41:15;;;;;;;0.40;0.30;;;16.50;99.90;;;;;;4897553;29;20403;-71
2022/06/02 07:43:58;;;;;;;0.40;0.30;;;16.60;99.90;;;;;;4894875;29;20409;-69
2022/06/02 07:46:45;;;;;;;0.40;0.30;;;16.60;99.90;;;;;;4895816;29;20463;-70
2022/06/02 07:49:23;;;;;;;0.40;0.30;;;16.70;99.90;;;;;;4895357;29;20502;-69
2022/06/02 07:51:57;;;;;;;0.40;0.20;;;16.80;99.90;;;;;;4895743;29;20462;-71
2022/06/02 07:54:35;;;;;;;0.40;0.20;;;17.00;99.90;;;;;;4896601;29;20793;-67
2022/06/02 07:57:22;;;;;;;0.40;0.28;;;17.20;99.00;;;;;;4904548;29;20910;-69
2022/06/02 07:59:53;;;;;;;0.40;0.28;;;17.20;98.60;;;;;;4894389;29;20439;-70
2022/06/02 08:02:50;;;;;;;0.40;0.30;;;17.20;98.80;;;;;;4895543;29;20418;-67
2022/06/02 08:06:00;;;;;;;0.40;0.20;;;17.30;98.70;;;;;;4895707;29;20406;-68
2022/06/02 08:08:53;;;;;;;0.40;0.20;;;17.30;98.50;;;;;;4877172;29;20443;-68
2022/06/02 08:11:57;;;;;;;0.40;0.30;;;17.20;98.20;;;;;;4884951;29;20487;-69
2022/06/02 08:14:44;;;;;;;0.40;0.20;;;17.10;97.50;;;;;;4835399;29;20432;-68
2022/06/02 08:17:20;;;;;;;0.40;0.20;;;17.00;97.80;;;;;;4854858;29;20419;-69
2022/06/02 08:20:00;;;;;;;0.40;0.20;;;17.10;97.90;;;;;;4896158;29;20413;-69
2022/06/02 08:22:43;;;;;;;0.40;0.20;;;17.10;97.60;;;;;;4891885;29;20429;-68
2022/06/02 08:25:14;;;;;;;0.40;0.20;;;17.30;97.50;;;;;;4893493;29;20525;-68
2022/06/02 08:27:40;;;;;;;0.40;0.20;;;17.30;97.10;;;;;;4895470;29;20835;-69
2022/06/02 08:30:10;;;;;;;0.83;0.73;;;17.20;97.40;;;;;;4913583;29;20405;-69
2022/06/02 08:32:35;;;;;;;0.40;0.20;;;17.20;97.80;;;;;;4900255;29;20413;-68
2022/06/02 08:35:39;;;;;;;0.40;0.20;;;17.30;97.50;;;;;;4895107;29;20813;-70
2022/06/02 08:38:29;;;;;;;0.40;0.20;;;17.20;98.20;;;;;;4892691;29;20418;-70
2022/06/02 08:41:29;;;;;;;0.40;0.20;;;17.30;97.80;;;;;;4887680;29;20433;-70
2022/06/02 08:44:10;;;;;;;0.40;0.20;;;17.40;98.00;;;;;;4899827;29;20490;-70
2022/06/02 08:46:41;;;;;;;0.40;0.20;;;17.60;97.30;;;;;;4903887;29;20407;-69
2022/06/02 08:49:46;;;;;;;0.40;0.20;;;17.90;97.20;;;;;;4899001;29;20395;-69
2022/06/02 08:52:42;;;;;;;0.40;0.20;;;17.80;97.00;;;;;;4917468;29;21019;-68
2022/06/02 08:55:26;;;;;;;0.40;0.20;;;17.90;96.90;;;;;;4903929;29;20411;-70
2022/06/02 08:58:11;;;;;;;0.40;0.20;;;18.00;96.90;;;;;;4902253;29;20413;-70
2022/06/02 09:01:21;;;;;;;0.40;0.20;;;18.10;95.90;;;;;;4904372;29;20410;-69
2022/06/02 09:04:14;;;;;;;0.40;0.20;;;18.10;95.80;;;;;;4882850;29;20414;-70
2022/06/02 09:06:50;;;;;;;0.40;0.20;;;18.40;95.30;;;;;;4904841;29;20416;-68
2022/06/02 09:09:38;;;;;;;0.40;0.20;;;18.70;94.80;;;;;;4909778;29;20424;-69
2022/06/02 09:12:09;;;;;;;0.40;0.20;;;18.80;94.90;;;;;;4879379;29;20476;-69
2022/06/02 09:14:56;;;;;;;0.40;0.30;;;19.00;93.50;;;;;;4911938;29;20496;-69
2022/06/02 09:17:40;;;;;;;0.40;0.20;;;19.30;92.70;;;;;;4917017;29;20432;-69
2022/06/02 09:20:41;;;;;;;0.40;0.30;;;19.30;92.20;;;;;;4905218;29;20412;-70
2022/06/02 09:23:14;;;;;;;0.40;0.30;;;19.50;92.10;;;;;;4904651;29;20438;-70
2022/06/02 09:25:59;;;;;;;0.40;0.20;;;19.50;91.10;;;;;;4909742;29;20415;-71
2022/06/02 09:28:54;;;;;;;0.40;0.20;;;19.40;91.50;;;;;;4910423;29;20444;-69
2022/06/02 09:31:48;;;;;;;0.40;0.20;;;19.70;90.40;;;;;;4915865;29;20417;-71
2022/06/02 09:34:52;;;;;;;0.40;0.20;;;19.60;90.90;;;;;;4912243;29;20758;-70
2022/06/02 09:37:20;;;;;;;0.40;0.20;;;19.90;90.70;;;;;;4898588;29;20437;-71
2022/06/02 09:40:13;;;;;;;0.40;0.20;;;19.60;91.00;;;;;;4917490;29;20398;-70
2022/06/02 09:42:57;;;;;;;0.40;0.20;;;20.00;90.90;;;;;;4916880;29;20409;-69
2022/06/02 09:46:00;;;;;;;0.40;0.20;;;20.20;90.60;;;;;;4906982;29;20474;-69
2022/06/02 09:48:49;;;;;;;0.40;0.20;;;20.20;90.50;;;;;;4898645;29;20766;-69
2022/06/02 09:51:45;;;;;;;0.40;0.20;;;20.00;91.20;;;;;;4898028;29;20450;-70
2022/06/02 09:54:20;;;;;;;0.40;0.20;;;20.00;90.40;;;;;;4909522;29;20500;-71
2022/06/02 10:00:38;;;;;;;0.40;0.20;;;20.20;90.70;;;;;;4900287;29;21037;-70
2022/06/02 10:03:34;;;;;;;0.40;0.20;;;20.20;89.70;;;;;;4901721;29;20436;-69
2022/06/02 10:06:31;;;;;;;0.40;0.30;;;20.30;89.50;;;;;;4901654;29;20526;-71
2022/06/02 10:09:06;;;;;;;0.40;0.20;;;20.20;89.50;;;;;;4880565;29;21052;-72
2022/06/02 10:12:54;;;;;;;0.40;0.40;;;20.20;89.80;;;;;;4896289;29;20418;-70
2022/06/02 10:15:22;;;;;;;0.40;0.20;;;20.20;89.40;;;;;;4903408;29;20409;-68
2022/06/02 10:18:09;;;;;;;0.40;0.20;;;20.20;88.80;;;;;;4908638;29;20482;-70
2022/06/02 10:20:53;;;;;;;0.40;0.20;;;20.20;89.70;;;;;;4879015;29;20405;-70
2022/06/02 10:23:56;;;;;;;0.40;0.30;;;20.40;89.70;;;;;;4878467;29;20412;-70
2022/06/02 10:26:48;;;;;;;0.40;0.30;;;20.70;90.00;;;;;;4900637;29;20504;-70
2022/06/02 10:29:32;;;;;;;0.40;0.30;;;20.70;89.60;;;;;;4902399;29;20855;-71
2022/06/02 10:32:25;;;;;;;0.40;0.30;;;21.00;88.20;;;;;;4900741;29;20500;-71
2022/06/02 10:35:36;;;;;;;0.40;0.30;;;21.20;86.50;;;;;;4897447;29;20556;-70
2022/06/02 10:38:39;;;;;;;0.40;0.30;;;21.00;85.20;;;;;;4892406;29;20500;-70
2022/06/02 10:41:24;;;;;;;0.40;0.30;;;21.30;86.10;;;;;;4894611;29;20414;-70
2022/06/02 10:43:55;;;;;;;0.40;0.30;;;21.70;84.60;;;;;;4900179;29;20446;-71
2022/06/02 10:46:46;;;;;;;0.40;0.30;;;21.90;85.20;;;;;;4908497;29;20418;-71
2022/06/02 10:49:25;;;;;;;0.60;0.50;;;22.10;82.10;;;;;;4895071;29;20909;-69
2022/06/02 10:52:30;;;;;;;0.40;0.20;;;22.20;83.00;;;;;;4878424;29;20467;-69
2022/06/02 10:54:58;;;;;;;0.40;0.30;;;22.30;82.80;;;;;;4896136;29;20413;-68
2022/06/02 10:57:44;;;;;;;0.40;0.20;;;22.10;82.20;;;;;;4894541;29;20450;-69
2022/06/02 11:00:10;;;;;;;0.40;0.20;;;22.10;81.80;;;;;;4894837;29;20425;-70
2022/06/02 11:03:13;;;;;;;0.40;0.20;;;21.80;82.10;;;;;;4895969;29;20764;-70
2022/06/02 11:06:09;;;;;;;0.40;0.30;;;21.90;82.20;;;;;;4896237;29;20399;-69
2022/06/02 11:08:59;;;;;;;0.40;0.30;;;21.80;84.50;;;;;;4907826;29;20427;-70
2022/06/02 11:12:23;;;;;;;0.40;0.20;;;21.80;84.70;;;;;;4907907;29;20438;-70
2022/06/02 11:15:02;;;;;;;0.40;0.20;;;21.90;85.20;;;;;;4899217;29;20767;-70
2022/06/02 11:20:50;;;;;;;0.40;0.20;;;21.90;81.70;;;;;;4872463;29;20853;-69
2022/06/02 11:24:04;;;;;;;0.40;0.20;;;21.90;83.00;;;;;;4910593;29;20898;-68
2022/06/02 11:26:49;;;;;;;0.40;0.20;;;21.90;82.00;;;;;;4915392;29;20478;-69
2022/06/02 11:30:08;;;;;;;0.40;0.30;;;22.00;82.00;;;;;;4914639;29;20843;-69
2022/06/02 11:33:04;;;;;;;0.40;0.20;;;22.30;80.00;;;;;;4915423;29;20472;-69
2022/06/02 11:36:29;;;;;;;0.40;0.20;;;22.10;80.80;;;;;;4915158;29;20456;-68
2022/06/02 11:39:52;;;;;;;0.40;0.20;;;22.30;80.10;;;;;;4857107;29;20489;-68
2022/06/02 11:42:59;;;;;;;0.40;0.20;;;22.20;80.60;;;;;;4855760;29;20421;-68
2022/06/02 11:45:56;;;;;;;0.40;0.20;;;22.30;79.90;;;;;;4856139;29;20509;-68
2022/06/02 11:49:06;;;;;;;0.40;0.20;;;22.20;81.60;;;;;;4856039;29;20426;-68
2022/06/02 11:52:25;;;;;;;0.40;0.20;;;21.90;80.70;;;;;;4914879;29;20397;-68
2022/06/02 11:55:31;;;;;;;0.40;0.20;;;21.90;80.70;;;;;;4899311;29;20506;-68
2022/06/02 11:58:48;;;;;;;0.40;0.20;;;22.00;80.40;;;;;;4909016;29;20409;-69
2022/06/02 12:01:47;;;;;;;0.40;0.20;;;21.90;81.60;;;;;;4905667;29;20467;-69
2022/06/02 12:05:27;;;;;;;0.40;0.30;;;21.70;83.40;;;;;;4883368;29;20402;-69
2022/06/02 12:08:49;;;;;;;0.40;0.20;;;21.80;81.50;;;;;;4840598;29;21014;-69
2022/06/02 12:12:10;;;;;;;0.40;0.20;;;21.70;82.90;;;;;;4843659;29;20528;-69
2022/06/02 12:15:07;;;;;;;0.40;0.20;;;21.30;88.90;;;;;;4832239;29;20398;-69
2022/06/02 12:18:38;;;;;;;0.40;0.30;;;21.20;90.40;;;;;;4840363;29;20447;-69
2022/06/02 12:21:31;;;;;;;0.40;0.20;;;21.10;87.80;;;;;;4845853;29;20417;-70
2022/06/02 12:24:35;;;;;;;0.40;0.30;;;21.00;87.60;;;;;;4898773;29;20403;-67
2022/06/02 12:27:44;;;;;;;0.40;0.20;;;21.10;86.50;;;;;;4903517;29;20462;-68
2022/06/02 12:30:35;;;;;;;0.40;0.20;;;21.10;89.80;;;;;;4898298;29;20471;-69
2022/06/02 12:33:28;;;;;;;0.40;0.30;;;20.60;93.50;;;;;;4899691;29;20413;-68
2022/06/02 12:36:26;;;;;;;0.40;0.20;;;19.80;99.90;;;;;;4899230;29;20425;-68
2022/06/02 12:39:26;;;;;;;0.40;0.20;;;19.00;99.90;;;;;;4894633;29;20454;-70
2022/06/02 12:42:16;;;;;;;0.40;0.20;;;18.50;99.90;;;;;;4893750;29;20934;-72
2022/06/02 12:44:41;;;;;;;0.40;0.20;;;17.90;99.90;;;;;;4896734;29;20491;-71
2022/06/02 12:47:42;;;;;;;0.40;0.20;;;17.20;99.90;;;;;;4894658;29;20445;-71
2022/06/02 12:50:16;;;;;;;0.40;0.20;;;17.00;99.90;;;;;;4907375;29;20418;-71
2022/06/02 12:53:00;;;;;;;0.40;0.20;;;16.70;99.90;;;;;;4903156;29;20779;-70
2022/06/02 12:55:44;;;;;;;0.40;0.20;;;16.60;99.90;;;;;;4906804;29;20452;-70
2022/06/02 12:58:40;;;;;;;0.40;0.20;;;16.70;99.90;;;;;;4908826;29;20472;-71
2022/06/02 13:01:20;;;;;;;0.40;0.40;;;16.90;99.90;;;;;;4887565;29;20423;-72
2022/06/02 13:04:05;;;;;;;0.40;0.20;;;16.90;99.90;;;;;;4898144;29;20506;-71
2022/06/02 13:07:18;;;;;;;0.40;0.20;;;17.20;99.90;;;;;;4894464;29;20406;-72
2022/06/02 13:10:02;;;;;;;0.40;0.30;;;17.10;99.90;;;;;;4893934;29;20426;-72
2022/06/02 13:12:31;;;;;;;0.40;0.20;;;17.20;99.90;;;;;;4894056;29;20383;-71
2022/06/02 13:15:21;;;;;;;0.80;0.80;;;17.30;99.90;;;;;;4897177;29;20447;-71
2022/06/02 13:17:50;;;;;;;0.70;0.70;;;17.40;99.90;;;;;;4895173;29;20742;-71
2022/06/02 13:20:27;;;;;;;0.40;0.20;;;17.50;99.90;;;;;;4893664;29;20442;-71
2022/06/02 13:23:05;;;;;;;0.40;0.20;;;17.60;99.90;;;;;;4895041;29;20403;-72
2022/06/02 13:25:42;;;;;;;0.40;0.30;;;17.70;99.90;;;;;;4894230;29;20418;-71
2022/06/02 13:28:52;;;;;;;0.40;0.20;;;17.60;99.90;;;;;;4884006;29;20933;-71
2022/06/02 13:31:30;;;;;;;0.90;0.80;;;17.50;99.90;;;;;;4888110;29;20427;-71
2022/06/02 13:34:27;;;;;;;0.40;0.40;;;17.60;99.90;;;;;;4894994;29;20447;-71
2022/06/02 13:37:19;;;;;;;0.40;0.20;;;17.70;99.90;;;;;;4896340;29;20908;-71
2022/06/02 13:40:09;;;;;;;0.40;0.40;;;17.70;99.90;;;;;;4916667;29;20415;-70
2022/06/02 13:43:07;;;;;;;0.40;0.20;;;17.90;99.90;;;;;;4897284;29;20764;-70
2022/06/02 13:45:54;;;;;;;0.60;0.60;;;18.10;99.90;;;;;;4886070;29;20439;-69
2022/06/02 13:48:32;;;;;;;0.40;0.20;;;18.20;99.90;;;;;;4896499;29;20438;-69
2022/06/02 13:51:09;;;;;;;0.40;0.30;;;18.20;99.90;;;;;;4894918;29;20443;-68
2022/06/02 13:57:30;;;;;;;0.40;0.22;;;18.20;99.90;;;;;;4896089;29;20888;-69
2022/06/02 14:00:17;;;;;;;0.40;0.30;;;17.80;99.90;;;;;;4897229;29;20429;-70
2022/06/02 14:02:58;;;;;;;0.40;0.20;;;17.60;99.90;;;;;;4876035;29;20862;-69
2022/06/02 14:05:44;;;;;;;0.40;0.30;;;17.60;99.90;;;;;;4896550;29;20417;-66
2022/06/02 14:08:28;;;;;;;0.40;0.20;;;17.60;99.90;;;;;;4897382;29;20418;-70
2022/06/02 14:11:12;;;;;;;0.40;0.20;;;17.60;99.90;;;;;;4897795;29;20873;-69
2022/06/02 14:13:44;;;;;;;0.40;0.30;;;17.60;99.90;;;;;;4896616;29;20778;-69
2022/06/02 14:16:28;;;;;;;0.60;0.60;;;17.60;99.90;;;;;;4897359;29;20482;-71
2022/06/02 14:19:17;;;;;;;0.40;0.20;;;17.60;99.90;;;;;;4897749;29;20895;-69
2022/06/02 14:21:55;;;;;;;0.40;0.20;;;17.70;99.90;;;;;;4897883;29;20424;-69
2022/06/02 14:24:37;;;;;;;0.40;0.30;;;17.90;99.90;;;;;;4897130;29;20395;-69
2022/06/02 14:27:18;;;;;;;0.40;0.28;;;17.90;99.90;;;;;;4897714;29;20513;-69
2022/06/02 14:30:07;;;;;;;0.40;0.20;;;18.10;99.90;;;;;;4897813;29;20483;-69
2022/06/02 14:32:59;;;;;;;0.40;0.20;;;18.10;99.90;;;;;;4896546;29;21016;-69
2022/06/02 14:35:37;;;;;;;0.70;0.70;;;18.30;99.90;;;;;;4896857;29;20399;-69
2022/06/02 14:38:18;;;;;;;1.00;1.00;;;18.40;99.90;;;;;;4897522;29;20410;-69
2022/06/02 14:40:52;;;;;;;0.40;0.20;;;18.50;99.90;;;;;;4897393;29;20430;-69
2022/06/02 14:43:20;;;;;;;0.50;0.50;;;18.60;99.90;;;;;;4896487;29;20403;-69
2022/06/02 14:46:09;;;;;;;0.40;0.20;;;18.60;99.90;;;;;;4896069;29;20725;-69
2022/06/02 14:48:45;;;;;;;0.40;0.20;;;18.80;99.90;;;;;;4888646;29;20458;-69
2022/06/02 14:51:18;;;;;;;0.40;0.20;;;19.00;99.90;;;;;;4895636;29;20469;-71
2022/06/02 14:53:45;;;;;;;0.40;0.20;;;19.40;99.90;;;;;;4895518;29;20579;-69